Terminal Aerodrome Forecast
Issued by NWS

Home | Current Version | Previous Version | Text Only | Print | Product List | Glossary Off
Versions: 1 2 3 4 5 6 7 8 9 10 11 12 13 14 15 16 17 18 19 20 21 22 23 24 25 26 27 28 29 30 31 32 33 34 35 36 37 38 39

000
FTUS45 KBOU 291301 AAA
TAFBJC
TAF AMD
KBJC 291301Z 2913/3012 27008KT P6SM SCT080 SCT120
     FM291600 VRB05KT P6SM SCT080 SCT120
     FM292000 30013KT P6SM SCT070 BKN120
      TEMPO 2921/2924 VRB15G25KT -TSRA BKN060CB
     FM300100 27012KT P6SM SCT080 SCT150
     FM300600 28009KT P6SM FEW150 FEW200=

USA.gov is the U.S. government's official web portal to all federal, state and local government web resources and services.